sensor_id;sensor_type;location;lat;lon;timestamp;pressure;altitude;pressure_sealevel;temperature
72405;BMP280;60395;52.020;113.548;2023-05-10T00:00:31;92856.31;;;26.41
72405;BMP280;60395;52.020;113.548;2023-05-10T00:03:35;92856.16;;;25.83
72405;BMP280;60395;52.020;113.548;2023-05-10T00:06:38;92849.38;;;26.35
72405;BMP280;60395;52.020;113.548;2023-05-10T00:09:41;92854.59;;;27.04
72405;BMP280;60395;52.020;113.548;2023-05-10T00:12:45;92847.97;;;28.15
72405;BMP280;60395;52.020;113.548;2023-05-10T00:15:48;92840.81;;;29.10
72405;BMP280;60395;52.020;113.548;2023-05-10T00:18:51;92835.56;;;30.31
72405;BMP280;60395;52.020;113.548;2023-05-10T00:21:54;92840.34;;;30.59
72405;BMP280;60395;52.020;113.548;2023-05-10T00:24:58;92841.28;;;30.77
72405;BMP280;60395;52.020;113.548;2023-05-10T00:28:01;92834.09;;;30.60
72405;BMP280;60395;52.020;113.548;2023-05-10T00:31:04;92833.44;;;32.73
72405;BMP280;60395;52.020;113.548;2023-05-10T00:34:08;92828.38;;;31.25
72405;BMP280;60395;52.020;113.548;2023-05-10T00:37:11;92832.78;;;30.53
72405;BMP280;60395;52.020;113.548;2023-05-10T00:40:14;92826.50;;;29.91
72405;BMP280;60395;52.020;113.548;2023-05-10T00:43:23;92822.34;;;29.13
72405;BMP280;60395;52.020;113.548;2023-05-10T00:46:26;92822.25;;;28.31
72405;BMP280;60395;52.020;113.548;2023-05-10T00:49:30;92823.56;;;26.96
72405;BMP280;60395;52.020;113.548;2023-05-10T00:52:33;92817.94;;;26.66
72405;BMP280;60395;52.020;113.548;2023-05-10T00:55:37;92810.84;;;24.79
72405;BMP280;60395;52.020;113.548;2023-05-10T00:58:41;92821.59;;;23.75
72405;BMP280;60395;52.020;113.548;2023-05-10T01:01:47;92812.44;;;22.81
72405;BMP280;60395;52.020;113.548;2023-05-10T01:04:51;92804.56;;;22.26
72405;BMP280;60395;52.020;113.548;2023-05-10T01:07:56;92804.81;;;22.11
72405;BMP280;60395;52.020;113.548;2023-05-10T01:10:59;92795.41;;;21.68
72405;BMP280;60395;52.020;113.548;2023-05-10T01:14:03;92798.72;;;21.35
72405;BMP280;60395;52.020;113.548;2023-05-10T01:17:07;92793.00;;;21.07
72405;BMP280;60395;52.020;113.548;2023-05-10T01:20:12;92785.53;;;20.74
72405;BMP280;60395;52.020;113.548;2023-05-10T01:23:31;92786.72;;;20.77
72405;BMP280;60395;52.020;113.548;2023-05-10T01:34:12;92776.75;;;20.88
72405;BMP280;60395;52.020;113.548;2023-05-10T01:37:31;92766.56;;;20.90
72405;BMP280;60395;52.020;113.548;2023-05-10T01:40:42;92766.81;;;20.86
72405;BMP280;60395;52.020;113.548;2023-05-10T01:45:00;92760.81;;;20.86
72405;BMP280;60395;52.020;113.548;2023-05-10T01:47:41;92750.78;;;20.86
72405;BMP280;60395;52.020;113.548;2023-05-10T01:50:46;92741.69;;;20.71
72405;BMP280;60395;52.020;113.548;2023-05-10T01:53:56;92743.72;;;20.70
72405;BMP280;60395;52.020;113.548;2023-05-10T01:57:05;92739.66;;;20.71
72405;BMP280;60395;52.020;113.548;2023-05-10T02:00:11;92732.75;;;20.87
72405;BMP280;60395;52.020;113.548;2023-05-10T02:03:16;92738.50;;;20.91
72405;BMP280;60395;52.020;113.548;2023-05-10T02:06:22;92729.47;;;20.97
72405;BMP280;60395;52.020;113.548;2023-05-10T02:09:27;92721.31;;;21.12
72405;BMP280;60395;52.020;113.548;2023-05-10T02:12:36;92724.41;;;21.27
72405;BMP280;60395;52.020;113.548;2023-05-10T02:15:41;92715.34;;;21.55
72405;BMP280;60395;52.020;113.548;2023-05-10T02:18:47;92711.88;;;21.57
72405;BMP280;60395;52.020;113.548;2023-05-10T02:21:52;92706.56;;;21.67
72405;BMP280;60395;52.020;113.548;2023-05-10T02:24:58;92706.81;;;21.85
72405;BMP280;60395;52.020;113.548;2023-05-10T02:28:04;92698.44;;;22.01
72405;BMP280;60395;52.020;113.548;2023-05-10T02:31:10;92706.09;;;22.07
72405;BMP280;60395;52.020;113.548;2023-05-10T02:34:14;92699.56;;;22.04
72405;BMP280;60395;52.020;113.548;2023-05-10T02:37:21;92694.75;;;22.07
72405;BMP280;60395;52.020;113.548;2023-05-10T02:40:25;92688.25;;;22.14
72405;BMP280;60395;52.020;113.548;2023-05-10T02:43:32;92678.94;;;22.34
72405;BMP280;60395;52.020;113.548;2023-05-10T02:46:36;92682.56;;;22.50
72405;BMP280;60395;52.020;113.548;2023-05-10T02:49:40;92676.06;;;22.58
72405;BMP280;60395;52.020;113.548;2023-05-10T02:52:49;92676.78;;;22.67
72405;BMP280;60395;52.020;113.548;2023-05-10T02:55:58;92668.94;;;22.84
72405;BMP280;60395;52.020;113.548;2023-05-10T02:59:02;92666.34;;;23.03
72405;BMP280;60395;52.020;113.548;2023-05-10T03:02:06;92667.44;;;23.06
72405;BMP280;60395;52.020;113.548;2023-05-10T03:05:09;92675.78;;;23.02
72405;BMP280;60395;52.020;113.548;2023-05-10T03:08:13;92667.22;;;22.99
72405;BMP280;60395;52.020;113.548;2023-05-10T03:11:49;92652.84;;;23.24
72405;BMP280;60395;52.020;113.548;2023-05-10T03:15:13;92652.41;;;23.49
72405;BMP280;60395;52.020;113.548;2023-05-10T03:18:29;92648.75;;;23.44
72405;BMP280;60395;52.020;113.548;2023-05-10T03:21:38;92630.72;;;23.43
72405;BMP280;60395;52.020;113.548;2023-05-10T03:24:45;92629.84;;;23.46
72405;BMP280;60395;52.020;113.548;2023-05-10T03:27:52;92627.03;;;23.76
72405;BMP280;60395;52.020;113.548;2023-05-10T03:30:57;92628.72;;;23.90
72405;BMP280;60395;52.020;113.548;2023-05-10T03:34:03;92619.75;;;23.93
72405;BMP280;60395;52.020;113.548;2023-05-10T03:37:06;92618.13;;;24.07
72405;BMP280;60395;52.020;113.548;2023-05-10T03:40:10;92606.53;;;24.00
72405;BMP280;60395;52.020;113.548;2023-05-10T03:43:16;92601.47;;;23.96
72405;BMP280;60395;52.020;113.548;2023-05-10T03:46:19;92604.34;;;24.03
72405;BMP280;60395;52.020;113.548;2023-05-10T03:49:22;92598.78;;;23.96
72405;BMP280;60395;52.020;113.548;2023-05-10T03:52:26;92586.53;;;24.08
72405;BMP280;60395;52.020;113.548;2023-05-10T03:55:29;92587.78;;;24.45
72405;BMP280;60395;52.020;113.548;2023-05-10T03:58:33;92577.00;;;24.90
72405;BMP280;60395;52.020;113.548;2023-05-10T04:01:36;92564.00;;;25.18
72405;BMP280;60395;52.020;113.548;2023-05-10T04:04:39;92561.19;;;25.37
72405;BMP280;60395;52.020;113.548;2023-05-10T04:07:43;92552.31;;;25.38
72405;BMP280;60395;52.020;113.548;2023-05-10T04:10:47;92550.28;;;25.30
72405;BMP280;60395;52.020;113.548;2023-05-10T04:13:50;92538.06;;;25.40
72405;BMP280;60395;52.020;113.548;2023-05-10T04:16:53;92546.41;;;25.62
72405;BMP280;60395;52.020;113.548;2023-05-10T04:19:57;92531.81;;;25.76
72405;BMP280;60395;52.020;113.548;2023-05-10T04:23:00;92530.25;;;25.70
72405;BMP280;60395;52.020;113.548;2023-05-10T04:26:03;92529.44;;;25.80
72405;BMP280;60395;52.020;113.548;2023-05-10T04:29:06;92508.81;;;25.94
72405;BMP280;60395;52.020;113.548;2023-05-10T04:32:09;92519.03;;;26.08
72405;BMP280;60395;52.020;113.548;2023-05-10T04:35:13;92509.84;;;26.05
72405;BMP280;60395;52.020;113.548;2023-05-10T04:38:17;92497.47;;;26.17
72405;BMP280;60395;52.020;113.548;2023-05-10T04:41:20;92496.91;;;25.99
72405;BMP280;60395;52.020;113.548;2023-05-10T04:44:23;92490.59;;;25.94
72405;BMP280;60395;52.020;113.548;2023-05-10T04:47:27;92487.41;;;26.00
72405;BMP280;60395;52.020;113.548;2023-05-10T04:50:30;92478.16;;;26.14
72405;BMP280;60395;52.020;113.548;2023-05-10T04:53:33;92476.50;;;26.26
72405;BMP280;60395;52.020;113.548;2023-05-10T04:56:37;92472.16;;;26.38
72405;BMP280;60395;52.020;113.548;2023-05-10T04:59:40;92457.56;;;26.43
72405;BMP280;60395;52.020;113.548;2023-05-10T05:02:44;92462.34;;;26.58
72405;BMP280;60395;52.020;113.548;2023-05-10T05:05:48;92452.75;;;26.67
72405;BMP280;60395;52.020;113.548;2023-05-10T05:08:51;92445.97;;;26.83
72405;BMP280;60395;52.020;113.548;2023-05-10T05:11:55;92438.72;;;26.97
72405;BMP280;60395;52.020;113.548;2023-05-10T05:14:58;92431.53;;;26.87
72405;BMP280;60395;52.020;113.548;2023-05-10T05:18:02;92424.06;;;26.87
72405;BMP280;60395;52.020;113.548;2023-05-10T05:21:18;92427.50;;;27.09
72405;BMP280;60395;52.020;113.548;2023-05-10T05:24:21;92428.09;;;26.95
72405;BMP280;60395;52.020;113.548;2023-05-10T05:27:25;92427.47;;;26.79
72405;BMP280;60395;52.020;113.548;2023-05-10T05:30:30;92423.22;;;26.74
72405;BMP280;60395;52.020;113.548;2023-05-10T05:33:34;92412.22;;;26.84
72405;BMP280;60395;52.020;113.548;2023-05-10T05:36:37;92400.63;;;26.86
72405;BMP280;60395;52.020;113.548;2023-05-10T05:39:43;92395.78;;;27.10
72405;BMP280;60395;52.020;113.548;2023-05-10T05:42:47;92392.00;;;27.22
72405;BMP280;60395;52.020;113.548;2023-05-10T05:45:52;92384.34;;;27.25
72405;BMP280;60395;52.020;113.548;2023-05-10T05:48:56;92382.72;;;27.28
72405;BMP280;60395;52.020;113.548;2023-05-10T05:52:00;92383.16;;;27.45
72405;BMP280;60395;52.020;113.548;2023-05-10T05:55:05;92373.72;;;27.53
72405;BMP280;60395;52.020;113.548;2023-05-10T05:58:08;92374.31;;;27.53
72405;BMP280;60395;52.020;113.548;2023-05-10T06:01:11;92376.28;;;27.61
72405;BMP280;60395;52.020;113.548;2023-05-10T06:04:15;92367.25;;;27.71
72405;BMP280;60395;52.020;113.548;2023-05-10T06:07:19;92361.75;;;27.80
72405;BMP280;60395;52.020;113.548;2023-05-10T06:10:23;92367.50;;;27.76
72405;BMP280;60395;52.020;113.548;2023-05-10T06:13:27;92357.66;;;27.66
72405;BMP280;60395;52.020;113.548;2023-05-10T06:16:35;92353.97;;;27.54
72405;BMP280;60395;52.020;113.548;2023-05-10T06:19:38;92345.34;;;27.60
72405;BMP280;60395;52.020;113.548;2023-05-10T06:22:41;92353.22;;;27.77
72405;BMP280;60395;52.020;113.548;2023-05-10T06:25:44;92350.09;;;27.81
72405;BMP280;60395;52.020;113.548;2023-05-10T06:28:48;92346.78;;;27.81
72405;BMP280;60395;52.020;113.548;2023-05-10T06:31:51;92336.59;;;27.75
72405;BMP280;60395;52.020;113.548;2023-05-10T06:34:54;92327.84;;;27.74
72405;BMP280;60395;52.020;113.548;2023-05-10T06:37:58;92326.59;;;27.73
72405;BMP280;60395;52.020;113.548;2023-05-10T06:41:01;92330.97;;;27.55
72405;BMP280;60395;52.020;113.548;2023-05-10T06:44:04;92320.22;;;27.40
72405;BMP280;60395;52.020;113.548;2023-05-10T06:47:07;92321.56;;;27.33
72405;BMP280;60395;52.020;113.548;2023-05-10T06:50:11;92326.19;;;27.34
72405;BMP280;60395;52.020;113.548;2023-05-10T06:53:14;92318.53;;;27.37
72405;BMP280;60395;52.020;113.548;2023-05-10T06:56:18;92316.50;;;27.22
72405;BMP280;60395;52.020;113.548;2023-05-10T06:59:24;92321.44;;;27.04
72405;BMP280;60395;52.020;113.548;2023-05-10T07:02:27;92313.00;;;26.93
72405;BMP280;60395;52.020;113.548;2023-05-10T07:05:31;92318.13;;;26.89
72405;BMP280;60395;52.020;113.548;2023-05-10T07:08:35;92316.63;;;26.83
72405;BMP280;60395;52.020;113.548;2023-05-10T07:11:38;92316.81;;;26.96
72405;BMP280;60395;52.020;113.548;2023-05-10T07:14:41;92308.25;;;27.09
72405;BMP280;60395;52.020;113.548;2023-05-10T07:17:45;92316.41;;;27.15
72405;BMP280;60395;52.020;113.548;2023-05-10T07:20:48;92303.28;;;27.11
72405;BMP280;60395;52.020;113.548;2023-05-10T07:23:51;92321.19;;;27.00
72405;BMP280;60395;52.020;113.548;2023-05-10T07:26:54;92333.84;;;26.71
72405;BMP280;60395;52.020;113.548;2023-05-10T07:29:58;92311.41;;;26.36
72405;BMP280;60395;52.020;113.548;2023-05-10T07:33:01;92298.75;;;26.11
72405;BMP280;60395;52.020;113.548;2023-05-10T07:36:04;92292.78;;;26.10
72405;BMP280;60395;52.020;113.548;2023-05-10T07:39:08;92294.19;;;26.09
72405;BMP280;60395;52.020;113.548;2023-05-10T07:42:13;92298.53;;;26.21
72405;BMP280;60395;52.020;113.548;2023-05-10T07:45:17;92308.59;;;26.29
72405;BMP280;60395;52.020;113.548;2023-05-10T07:48:20;92297.28;;;26.20
72405;BMP280;60395;52.020;113.548;2023-05-10T07:51:24;92291.63;;;26.16
72405;BMP280;60395;52.020;113.548;2023-05-10T07:54:27;92290.00;;;26.19
72405;BMP280;60395;52.020;113.548;2023-05-10T07:57:30;92285.13;;;26.13
72405;BMP280;60395;52.020;113.548;2023-05-10T08:00:33;92296.25;;;26.09
72405;BMP280;60395;52.020;113.548;2023-05-10T08:03:37;92285.91;;;25.96
72405;BMP280;60395;52.020;113.548;2023-05-10T08:06:40;92283.38;;;25.94
72405;BMP280;60395;52.020;113.548;2023-05-10T08:09:44;92283.31;;;25.88
72405;BMP280;60395;52.020;113.548;2023-05-10T08:12:47;92289.19;;;25.82
72405;BMP280;60395;52.020;113.548;2023-05-10T08:15:50;92292.94;;;25.85
72405;BMP280;60395;52.020;113.548;2023-05-10T08:18:55;92282.66;;;25.87
72405;BMP280;60395;52.020;113.548;2023-05-10T08:21:59;92279.97;;;25.87
72405;BMP280;60395;52.020;113.548;2023-05-10T08:25:02;92277.53;;;25.92
72405;BMP280;60395;52.020;113.548;2023-05-10T08:28:05;92275.84;;;25.88
72405;BMP280;60395;52.020;113.548;2023-05-10T08:31:15;92279.34;;;25.87
72405;BMP280;60395;52.020;113.548;2023-05-10T08:34:18;92290.84;;;25.94
72405;BMP280;60395;52.020;113.548;2023-05-10T08:37:25;92283.97;;;25.80
72405;BMP280;60395;52.020;113.548;2023-05-10T08:40:29;92283.94;;;25.65
72405;BMP280;60395;52.020;113.548;2023-05-10T08:43:34;92290.38;;;25.68
72405;BMP280;60395;52.020;113.548;2023-05-10T08:46:40;92278.06;;;25.62
72405;BMP280;60395;52.020;113.548;2023-05-10T08:49:49;92270.28;;;25.43
72405;BMP280;60395;52.020;113.548;2023-05-10T08:52:55;92278.75;;;25.30
72405;BMP280;60395;52.020;113.548;2023-05-10T08:56:03;92277.69;;;25.19
72405;BMP280;60395;52.020;113.548;2023-05-10T08:59:07;92281.84;;;25.09
72405;BMP280;60395;52.020;113.548;2023-05-10T09:02:11;92278.84;;;25.05
72405;BMP280;60395;52.020;113.548;2023-05-10T09:05:19;92277.81;;;24.93
72405;BMP280;60395;52.020;113.548;2023-05-10T09:08:24;92281.28;;;24.92
72405;BMP280;60395;52.020;113.548;2023-05-10T09:11:29;92268.47;;;24.92
72405;BMP280;60395;52.020;113.548;2023-05-10T09:14:34;92265.44;;;24.96
72405;BMP280;60395;52.020;113.548;2023-05-10T09:17:38;92269.25;;;24.99
72405;BMP280;60395;52.020;113.548;2023-05-10T09:20:43;92278.38;;;25.02
72405;BMP280;60395;52.020;113.548;2023-05-10T09:23:47;92269.69;;;25.02
72405;BMP280;60395;52.020;113.548;2023-05-10T09:26:52;92272.88;;;24.96
72405;BMP280;60395;52.020;113.548;2023-05-10T09:29:56;92273.06;;;24.94
72405;BMP280;60395;52.020;113.548;2023-05-10T09:33:00;92271.78;;;24.93
72405;BMP280;60395;52.020;113.548;2023-05-10T09:36:07;92274.34;;;24.86
72405;BMP280;60395;52.020;113.548;2023-05-10T09:39:11;92271.53;;;24.71
72405;BMP280;60395;52.020;113.548;2023-05-10T09:42:18;92282.94;;;24.63
72405;BMP280;60395;52.020;113.548;2023-05-10T09:45:22;92284.41;;;24.45
72405;BMP280;60395;52.020;113.548;2023-05-10T09:48:26;92293.91;;;24.27
72405;BMP280;60395;52.020;113.548;2023-05-10T09:51:29;92301.94;;;24.10
72405;BMP280;60395;52.020;113.548;2023-05-10T09:54:33;92315.19;;;23.94
72405;BMP280;60395;52.020;113.548;2023-05-10T09:57:37;92319.59;;;23.81
72405;BMP280;60395;52.020;113.548;2023-05-10T10:00:42;92315.16;;;23.69
72405;BMP280;60395;52.020;113.548;2023-05-10T10:03:45;92303.16;;;23.59
72405;BMP280;60395;52.020;113.548;2023-05-10T10:06:59;92292.91;;;23.62
72405;BMP280;60395;52.020;113.548;2023-05-10T10:10:03;92301.75;;;23.60
72405;BMP280;60395;52.020;113.548;2023-05-10T10:13:08;92300.47;;;23.59
72405;BMP280;60395;52.020;113.548;2023-05-10T10:16:11;92312.31;;;23.62
72405;BMP280;60395;52.020;113.548;2023-05-10T10:19:15;92303.50;;;23.64
72405;BMP280;60395;52.020;113.548;2023-05-10T10:22:18;92306.31;;;23.62
72405;BMP280;60395;52.020;113.548;2023-05-10T10:25:21;92306.31;;;23.62
72405;BMP280;60395;52.020;113.548;2023-05-10T10:28:57;92292.59;;;23.66
72405;BMP280;60395;52.020;113.548;2023-05-10T10:35:22;92308.34;;;23.53
72405;BMP280;60395;52.020;113.548;2023-05-10T10:38:25;92308.78;;;23.47
72405;BMP280;60395;52.020;113.548;2023-05-10T10:41:40;92310.53;;;23.42
72405;BMP280;60395;52.020;113.548;2023-05-10T10:45:12;92315.25;;;23.41
72405;BMP280;60395;52.020;113.548;2023-05-10T10:48:21;92321.69;;;23.36
72405;BMP280;60395;52.020;113.548;2023-05-10T10:51:28;92316.59;;;23.32
72405;BMP280;60395;52.020;113.548;2023-05-10T10:54:35;92315.66;;;23.27
72405;BMP280;60395;52.020;113.548;2023-05-10T11:00:44;92314.81;;;23.11
72405;BMP280;60395;52.020;113.548;2023-05-10T11:07:18;92330.16;;;22.93
72405;BMP280;60395;52.020;113.548;2023-05-10T11:10:23;92329.94;;;22.78
72405;BMP280;60395;52.020;113.548;2023-05-10T11:16:42;92323.97;;;22.59
72405;BMP280;60395;52.020;113.548;2023-05-10T11:20:13;92333.34;;;22.49
72405;BMP280;60395;52.020;113.548;2023-05-10T11:23:18;92323.31;;;22.30
72405;BMP280;60395;52.020;113.548;2023-05-10T11:26:23;92334.72;;;22.20
72405;BMP280;60395;52.020;113.548;2023-05-10T11:29:28;92330.34;;;22.06
72405;BMP280;60395;52.020;113.548;2023-05-10T11:32:32;92329.13;;;21.95
72405;BMP280;60395;52.020;113.548;2023-05-10T11:35:39;92331.09;;;21.86
72405;BMP280;60395;52.020;113.548;2023-05-10T11:38:45;92325.16;;;21.75
72405;BMP280;60395;52.020;113.548;2023-05-10T11:41:50;92333.88;;;21.64
72405;BMP280;60395;52.020;113.548;2023-05-10T11:44:54;92337.84;;;21.55
72405;BMP280;60395;52.020;113.548;2023-05-10T11:47:58;92331.00;;;21.47
72405;BMP280;60395;52.020;113.548;2023-05-10T11:51:03;92336.41;;;21.37
72405;BMP280;60395;52.020;113.548;2023-05-10T11:54:08;92336.91;;;21.29
72405;BMP280;60395;52.020;113.548;2023-05-10T11:57:12;92339.75;;;21.16
72405;BMP280;60395;52.020;113.548;2023-05-10T12:00:15;92335.94;;;21.02
72405;BMP280;60395;52.020;113.548;2023-05-10T12:03:19;92337.50;;;20.89
72405;BMP280;60395;52.020;113.548;2023-05-10T12:06:26;92336.75;;;20.80
72405;BMP280;60395;52.020;113.548;2023-05-10T12:09:31;92346.28;;;20.66
72405;BMP280;60395;52.020;113.548;2023-05-10T12:12:46;92353.78;;;20.53
72405;BMP280;60395;52.020;113.548;2023-05-10T12:15:52;92359.13;;;20.43
72405;BMP280;60395;52.020;113.548;2023-05-10T12:18:57;92359.59;;;20.35
72405;BMP280;60395;52.020;113.548;2023-05-10T12:22:05;92356.41;;;20.32
72405;BMP280;60395;52.020;113.548;2023-05-10T12:25:08;92348.53;;;20.30
72405;BMP280;60395;52.020;113.548;2023-05-10T12:28:12;92357.31;;;20.28
72405;BMP280;60395;52.020;113.548;2023-05-10T12:31:16;92355.53;;;20.25
72405;BMP280;60395;52.020;113.548;2023-05-10T12:34:46;92353.22;;;20.19
72405;BMP280;60395;52.020;113.548;2023-05-10T12:37:54;92354.00;;;20.17
72405;BMP280;60395;52.020;113.548;2023-05-10T12:41:03;92350.53;;;20.19
72405;BMP280;60395;52.020;113.548;2023-05-10T12:44:06;92349.16;;;20.20
72405;BMP280;60395;52.020;113.548;2023-05-10T12:47:10;92359.81;;;20.20
72405;BMP280;60395;52.020;113.548;2023-05-10T12:50:13;92364.03;;;20.17
72405;BMP280;60395;52.020;113.548;2023-05-10T12:53:23;92370.00;;;20.17
72405;BMP280;60395;52.020;113.548;2023-05-10T12:56:27;92371.13;;;20.20
72405;BMP280;60395;52.020;113.548;2023-05-10T12:59:30;92371.66;;;20.23
72405;BMP280;60395;52.020;113.548;2023-05-10T13:02:33;92374.06;;;20.27
72405;BMP280;60395;52.020;113.548;2023-05-10T13:05:37;92380.16;;;20.25
72405;BMP280;60395;52.020;113.548;2023-05-10T13:08:40;92381.41;;;20.16
72405;BMP280;60395;52.020;113.548;2023-05-10T13:11:43;92381.75;;;20.10
72405;BMP280;60395;52.020;113.548;2023-05-10T13:14:47;92361.97;;;20.07
72405;BMP280;60395;52.020;113.548;2023-05-10T13:17:51;92375.69;;;20.11
72405;BMP280;60395;52.020;113.548;2023-05-10T13:20:54;92369.06;;;20.10
72405;BMP280;60395;52.020;113.548;2023-05-10T13:23:58;92371.19;;;19.97
72405;BMP280;60395;52.020;113.548;2023-05-10T13:27:02;92371.03;;;19.89
72405;BMP280;60395;52.020;113.548;2023-05-10T13:30:07;92379.69;;;19.89
72405;BMP280;60395;52.020;113.548;2023-05-10T13:33:10;92376.88;;;19.91
72405;BMP280;60395;52.020;113.548;2023-05-10T13:36:14;92382.97;;;19.90
72405;BMP280;60395;52.020;113.548;2023-05-10T13:39:17;92379.16;;;19.87
72405;BMP280;60395;52.020;113.548;2023-05-10T13:42:22;92374.59;;;19.85
72405;BMP280;60395;52.020;113.548;2023-05-10T13:45:26;92376.19;;;19.80
72405;BMP280;60395;52.020;113.548;2023-05-10T13:48:29;92378.25;;;19.80
72405;BMP280;60395;52.020;113.548;2023-05-10T13:51:33;92374.81;;;19.81
72405;BMP280;60395;52.020;113.548;2023-05-10T13:54:37;92381.03;;;19.78
72405;BMP280;60395;52.020;113.548;2023-05-10T13:57:41;92375.06;;;19.77
72405;BMP280;60395;52.020;113.548;2023-05-10T14:00:45;92381.28;;;19.74
72405;BMP280;60395;52.020;113.548;2023-05-10T14:03:48;92381.50;;;19.70
72405;BMP280;60395;52.020;113.548;2023-05-10T14:06:52;92372.25;;;19.69
72405;BMP280;60395;52.020;113.548;2023-05-10T14:09:55;92364.06;;;19.60
72405;BMP280;60395;52.020;113.548;2023-05-10T14:12:58;92355.78;;;19.53
72405;BMP280;60395;52.020;113.548;2023-05-10T14:16:02;92364.38;;;19.43
72405;BMP280;60395;52.020;113.548;2023-05-10T14:19:05;92353.97;;;19.39
72405;BMP280;60395;52.020;113.548;2023-05-10T14:22:10;92358.00;;;19.38
72405;BMP280;60395;52.020;113.548;2023-05-10T14:25:14;92363.44;;;19.36
72405;BMP280;60395;52.020;113.548;2023-05-10T14:28:18;92358.41;;;19.20
72405;BMP280;60395;52.020;113.548;2023-05-10T14:31:22;92355.97;;;19.16
72405;BMP280;60395;52.020;113.548;2023-05-10T14:34:27;92358.53;;;19.18
72405;BMP280;60395;52.020;113.548;2023-05-10T14:37:30;92346.88;;;19.23
72405;BMP280;60395;52.020;113.548;2023-05-10T14:40:33;92350.72;;;19.26
72405;BMP280;60395;52.020;113.548;2023-05-10T14:43:37;92350.16;;;19.13
72405;BMP280;60395;52.020;113.548;2023-05-10T14:46:40;92352.63;;;19.05
72405;BMP280;60395;52.020;113.548;2023-05-10T14:49:44;92343.88;;;19.06
72405;BMP280;60395;52.020;113.548;2023-05-10T14:52:47;92347.34;;;19.15
72405;BMP280;60395;52.020;113.548;2023-05-10T14:55:51;92346.03;;;19.27
72405;BMP280;60395;52.020;113.548;2023-05-10T14:58:55;92341.72;;;19.32
72405;BMP280;60395;52.020;113.548;2023-05-10T15:01:59;92332.13;;;19.37
72405;BMP280;60395;52.020;113.548;2023-05-10T15:05:03;92326.06;;;19.38
72405;BMP280;60395;52.020;113.548;2023-05-10T15:08:06;92329.34;;;19.39
72405;BMP280;60395;52.020;113.548;2023-05-10T15:11:10;92336.59;;;19.40
72405;BMP280;60395;52.020;113.548;2023-05-10T15:14:13;92334.69;;;19.39
72405;BMP280;60395;52.020;113.548;2023-05-10T15:17:16;92328.47;;;19.42
72405;BMP280;60395;52.020;113.548;2023-05-10T15:20:19;92331.91;;;19.41
72405;BMP280;60395;52.020;113.548;2023-05-10T15:23:22;92330.88;;;19.36
72405;BMP280;60395;52.020;113.548;2023-05-10T15:26:26;92317.91;;;19.30
72405;BMP280;60395;52.020;113.548;2023-05-10T15:29:29;92324.09;;;19.26
72405;BMP280;60395;52.020;113.548;2023-05-10T15:32:34;92316.50;;;19.31
72405;BMP280;60395;52.020;113.548;2023-05-10T15:35:37;92307.59;;;19.24
72405;BMP280;60395;52.020;113.548;2023-05-10T15:38:42;92298.56;;;19.19
72405;BMP280;60395;52.020;113.548;2023-05-10T15:41:46;92290.69;;;19.17
72405;BMP280;60395;52.020;113.548;2023-05-10T15:44:49;92289.31;;;19.18
72405;BMP280;60395;52.020;113.548;2023-05-10T15:47:53;92286.25;;;19.13
72405;BMP280;60395;52.020;113.548;2023-05-10T15:50:56;92283.59;;;19.13
72405;BMP280;60395;52.020;113.548;2023-05-10T15:53:59;92290.28;;;19.12
72405;BMP280;60395;52.020;113.548;2023-05-10T15:57:09;92281.78;;;19.10
72405;BMP280;60395;52.020;113.548;2023-05-10T16:00:12;92279.25;;;19.08
72405;BMP280;60395;52.020;113.548;2023-05-10T16:03:15;92270.72;;;19.05
72405;BMP280;60395;52.020;113.548;2023-05-10T16:06:19;92276.19;;;19.03
72405;BMP280;60395;52.020;113.548;2023-05-10T16:09:22;92266.53;;;18.98
72405;BMP280;60395;52.020;113.548;2023-05-10T16:12:25;92271.97;;;18.95
72405;BMP280;60395;52.020;113.548;2023-05-10T16:15:28;92266.00;;;18.95
72405;BMP280;60395;52.020;113.548;2023-05-10T16:18:32;92270.16;;;18.92
72405;BMP280;60395;52.020;113.548;2023-05-10T16:21:35;92265.84;;;18.86
72405;BMP280;60395;52.020;113.548;2023-05-10T16:24:39;92258.19;;;18.80
72405;BMP280;60395;52.020;113.548;2023-05-10T16:27:43;92260.22;;;18.80
72405;BMP280;60395;52.020;113.548;2023-05-10T16:30:46;92251.91;;;18.73
72405;BMP280;60395;52.020;113.548;2023-05-10T16:33:50;92252.16;;;18.69
72405;BMP280;60395;52.020;113.548;2023-05-10T16:36:53;92253.66;;;18.66
72405;BMP280;60395;52.020;113.548;2023-05-10T16:39:56;92243.25;;;18.62
72405;BMP280;60395;52.020;113.548;2023-05-10T16:43:02;92249.31;;;18.61
72405;BMP280;60395;52.020;113.548;2023-05-10T16:46:11;92241.97;;;18.61
72405;BMP280;60395;52.020;113.548;2023-05-10T16:49:15;92239.53;;;18.57
72405;BMP280;60395;52.020;113.548;2023-05-10T16:52:18;92235.72;;;18.54
72405;BMP280;60395;52.020;113.548;2023-05-10T16:55:22;92231.16;;;18.53
72405;BMP280;60395;52.020;113.548;2023-05-10T16:58:27;92229.13;;;18.53
72405;BMP280;60395;52.020;113.548;2023-05-10T17:01:30;92224.03;;;18.49
72405;BMP280;60395;52.020;113.548;2023-05-10T17:04:34;92231.19;;;18.40
72405;BMP280;60395;52.020;113.548;2023-05-10T17:07:37;92224.41;;;18.30
72405;BMP280;60395;52.020;113.548;2023-05-10T17:10:40;92223.22;;;18.27
72405;BMP280;60395;52.020;113.548;2023-05-10T17:13:43;92230.69;;;18.25
72405;BMP280;60395;52.020;113.548;2023-05-10T17:16:47;92227.00;;;18.07
72405;BMP280;60395;52.020;113.548;2023-05-10T17:19:50;92225.75;;;17.94
72405;BMP280;60395;52.020;113.548;2023-05-10T17:22:53;92217.47;;;17.87
72405;BMP280;60395;52.020;113.548;2023-05-10T17:25:56;92222.22;;;17.85
72405;BMP280;60395;52.020;113.548;2023-05-10T17:29:02;92221.09;;;17.82
72405;BMP280;60395;52.020;113.548;2023-05-10T17:32:06;92227.66;;;17.83
72405;BMP280;60395;52.020;113.548;2023-05-10T17:35:10;92225.22;;;17.91